sensor_id;sensor_type;location;lat;lon;timestamp;pressure;altitude;pressure_sealevel;temperature;humidity
72294;BME280;60632;49.236;8.398;2023-02-03T00:02:20;101878.34;;;8.34;69.64
72294;BME280;60632;49.236;8.398;2023-02-03T00:05:21;101877.66;;;8.32;69.84
72294;BME280;60632;49.236;8.398;2023-02-03T00:08:21;101867.06;;;8.30;69.91
72294;BME280;60632;49.236;8.398;2023-02-03T00:11:22;101877.00;;;8.30;69.95
72294;BME280;60632;49.236;8.398;2023-02-03T00:14:22;101868.53;;;8.33;69.88
72294;BME280;60632;49.236;8.398;2023-02-03T00:17:23;101871.25;;;8.33;69.74
72294;BME280;60632;49.236;8.398;2023-02-03T00:20:23;101878.72;;;8.31;69.79
72294;BME280;60632;49.236;8.398;2023-02-03T00:23:24;101879.53;;;8.31;69.98
72294;BME280;60632;49.236;8.398;2023-02-03T00:26:25;101879.34;;;8.33;69.89
72294;BME280;60632;49.236;8.398;2023-02-03T00:29:27;101881.69;;;8.36;69.89
72294;BME280;60632;49.236;8.398;2023-02-03T00:32:27;101886.44;;;8.34;69.77
72294;BME280;60632;49.236;8.398;2023-02-03T00:35:30;101892.47;;;8.36;69.91
72294;BME280;60632;49.236;8.398;2023-02-03T00:38:31;101897.56;;;8.39;69.72
72294;BME280;60632;49.236;8.398;2023-02-03T00:41:31;101899.91;;;8.42;69.63
72294;BME280;60632;49.236;8.398;2023-02-03T00:44:31;101898.91;;;8.43;69.68
72294;BME280;60632;49.236;8.398;2023-02-03T00:47:31;101890.78;;;8.43;69.65
72294;BME280;60632;49.236;8.398;2023-02-03T00:50:32;101893.84;;;8.40;69.67
72294;BME280;60632;49.236;8.398;2023-02-03T00:53:32;101888.78;;;8.37;69.96
72294;BME280;60632;49.236;8.398;2023-02-03T00:56:32;101860.44;;;8.33;70.08
72294;BME280;60632;49.236;8.398;2023-02-03T00:59:33;101840.88;;;8.31;70.00
72294;BME280;60632;49.236;8.398;2023-02-03T01:02:33;101833.78;;;8.30;70.15
72294;BME280;60632;49.236;8.398;2023-02-03T01:05:33;101823.84;;;8.30;70.09
72294;BME280;60632;49.236;8.398;2023-02-03T01:08:34;101824.00;;;8.29;70.19
72294;BME280;60632;49.236;8.398;2023-02-03T01:11:34;101836.84;;;8.27;70.22
72294;BME280;60632;49.236;8.398;2023-02-03T01:14:34;101866.41;;;8.28;70.04
72294;BME280;60632;49.236;8.398;2023-02-03T01:17:34;101880.72;;;8.29;70.20
72294;BME280;60632;49.236;8.398;2023-02-03T01:20:35;101891.53;;;8.29;70.24
72294;BME280;60632;49.236;8.398;2023-02-03T01:23:35;101889.50;;;8.31;70.19
72294;BME280;60632;49.236;8.398;2023-02-03T01:26:36;101891.84;;;8.34;70.11
72294;BME280;60632;49.236;8.398;2023-02-03T01:29:36;101887.44;;;8.33;70.00
72294;BME280;60632;49.236;8.398;2023-02-03T01:32:37;101873.66;;;8.28;70.19
72294;BME280;60632;49.236;8.398;2023-02-03T01:35:37;101861.16;;;8.27;70.17
72294;BME280;60632;49.236;8.398;2023-02-03T01:38:38;101851.09;;;8.21;70.60
72294;BME280;60632;49.236;8.398;2023-02-03T01:41:38;101838.13;;;8.16;70.66
72294;BME280;60632;49.236;8.398;2023-02-03T01:44:46;101823.13;;;8.13;70.92
72294;BME280;60632;49.236;8.398;2023-02-03T01:47:47;101814.75;;;8.08;70.82
72294;BME280;60632;49.236;8.398;2023-02-03T01:50:49;101816.78;;;8.06;70.99
72294;BME280;60632;49.236;8.398;2023-02-03T01:53:50;101809.03;;;8.03;71.12
72294;BME280;60632;49.236;8.398;2023-02-03T01:56:53;101808.03;;;8.04;70.94
72294;BME280;60632;49.236;8.398;2023-02-03T01:59:54;101804.69;;;8.02;70.97
72294;BME280;60632;49.236;8.398;2023-02-03T02:02:56;101821.91;;;8.01;71.25
72294;BME280;60632;49.236;8.398;2023-02-03T02:06:07;101807.72;;;7.99;71.27
72294;BME280;60632;49.236;8.398;2023-02-03T02:09:08;101806.69;;;8.00;71.21
72294;BME280;60632;49.236;8.398;2023-02-03T02:12:09;101813.81;;;8.01;71.21
72294;BME280;60632;49.236;8.398;2023-02-03T02:15:10;101808.03;;;8.04;71.08
72294;BME280;60632;49.236;8.398;2023-02-03T02:18:14;101793.88;;;8.02;71.12
72294;BME280;60632;49.236;8.398;2023-02-03T02:24:38;101780.06;;;7.97;71.43
72294;BME280;60632;49.236;8.398;2023-02-03T02:40:26;101781.78;;;7.98;71.46
72294;BME280;60632;49.236;8.398;2023-02-03T02:47:04;101758.47;;;7.97;71.67
72294;BME280;60632;49.236;8.398;2023-02-03T02:53:10;101758.84;;;7.94;71.93
72294;BME280;60632;49.236;8.398;2023-02-03T02:56:12;101769.47;;;7.95;71.80
72294;BME280;60632;49.236;8.398;2023-02-03T02:59:14;101762.19;;;7.96;71.94
72294;BME280;60632;49.236;8.398;2023-02-03T03:02:14;101753.06;;;7.97;71.80
72294;BME280;60632;49.236;8.398;2023-02-03T03:05:16;101758.47;;;7.97;71.94
72294;BME280;60632;49.236;8.398;2023-02-03T03:08:18;101770.50;;;7.94;72.16
72294;BME280;60632;49.236;8.398;2023-02-03T03:11:20;101783.81;;;7.96;71.98
72294;BME280;60632;49.236;8.398;2023-02-03T03:14:22;101795.91;;;8.00;71.88
72294;BME280;60632;49.236;8.398;2023-02-03T03:17:25;101788.47;;;8.02;71.80
72294;BME280;60632;49.236;8.398;2023-02-03T03:20:28;101789.31;;;8.03;71.79
72294;BME280;60632;49.236;8.398;2023-02-03T03:23:29;101797.25;;;8.04;71.83
72294;BME280;60632;49.236;8.398;2023-02-03T03:29:32;101816.78;;;8.06;71.74
72294;BME280;60632;49.236;8.398;2023-02-03T03:32:35;101814.09;;;8.06;71.92
72294;BME280;60632;49.236;8.398;2023-02-03T03:35:50;101827.22;;;8.09;71.68
72294;BME280;60632;49.236;8.398;2023-02-03T03:41:56;101839.31;;;8.13;71.74
72294;BME280;60632;49.236;8.398;2023-02-03T03:45:09;101830.59;;;8.11;71.67
72294;BME280;60632;49.236;8.398;2023-02-03T03:48:15;101837.66;;;8.12;71.62
72294;BME280;60632;49.236;8.398;2023-02-03T03:51:26;101823.69;;;8.09;71.84
72294;BME280;60632;49.236;8.398;2023-02-03T03:54:28;101811.38;;;8.06;71.80
72294;BME280;60632;49.236;8.398;2023-02-03T03:57:30;101822.53;;;8.03;72.09
72294;BME280;60632;49.236;8.398;2023-02-03T04:00:33;101810.44;;;7.99;72.15
72294;BME280;60632;49.236;8.398;2023-02-03T04:03:44;101798.81;;;7.99;72.25
72294;BME280;60632;49.236;8.398;2023-02-03T04:06:45;101799.63;;;7.99;72.08
72294;BME280;60632;49.236;8.398;2023-02-03T04:09:46;101792.56;;;7.98;72.00
72294;BME280;60632;49.236;8.398;2023-02-03T04:12:46;101819.94;;;7.95;72.18
72294;BME280;60632;49.236;8.398;2023-02-03T04:15:46;101823.63;;;7.94;72.10
72294;BME280;60632;49.236;8.398;2023-02-03T04:18:47;101818.59;;;7.91;72.26
72294;BME280;60632;49.236;8.398;2023-02-03T04:21:47;101818.94;;;7.88;72.46
72294;BME280;60632;49.236;8.398;2023-02-03T04:24:48;101825.38;;;7.87;72.38
72294;BME280;60632;49.236;8.398;2023-02-03T04:27:48;101824.72;;;7.85;72.41
72294;BME280;60632;49.236;8.398;2023-02-03T04:30:48;101827.22;;;7.86;72.43
72294;BME280;60632;49.236;8.398;2023-02-03T04:33:49;101817.28;;;7.87;72.18
72294;BME280;60632;49.236;8.398;2023-02-03T04:36:49;101818.66;;;7.83;72.37
72294;BME280;60632;49.236;8.398;2023-02-03T04:39:49;101822.38;;;7.82;72.54
72294;BME280;60632;49.236;8.398;2023-02-03T04:42:51;101808.91;;;7.82;72.30
72294;BME280;60632;49.236;8.398;2023-02-03T04:45:51;101808.91;;;7.82;72.43
72294;BME280;60632;49.236;8.398;2023-02-03T04:48:51;101810.91;;;7.80;72.43
72294;BME280;60632;49.236;8.398;2023-02-03T04:51:52;101821.25;;;7.76;72.72
72294;BME280;60632;49.236;8.398;2023-02-03T04:54:52;101824.78;;;7.77;72.67
72294;BME280;60632;49.236;8.398;2023-02-03T04:57:56;101835.91;;;7.74;72.71
72294;BME280;60632;49.236;8.398;2023-02-03T05:00:56;101817.03;;;7.74;72.74
72294;BME280;60632;49.236;8.398;2023-02-03T05:03:57;101800.84;;;7.74;72.76
72294;BME280;60632;49.236;8.398;2023-02-03T05:06:57;101797.81;;;7.68;72.92
72294;BME280;60632;49.236;8.398;2023-02-03T05:09:57;101799.69;;;7.68;73.01
72294;BME280;60632;49.236;8.398;2023-02-03T05:12:58;101807.97;;;7.66;73.04
72294;BME280;60632;49.236;8.398;2023-02-03T05:15:58;101797.81;;;7.68;73.03
72294;BME280;60632;49.236;8.398;2023-02-03T05:18:58;101793.28;;;7.69;72.94
72294;BME280;60632;49.236;8.398;2023-02-03T05:21:58;101794.13;;;7.69;72.84
72294;BME280;60632;49.236;8.398;2023-02-03T05:24:59;101801.88;;;7.72;72.92
72294;BME280;60632;49.236;8.398;2023-02-03T05:28:02;101807.91;;;7.75;72.85
72294;BME280;60632;49.236;8.398;2023-02-03T05:31:02;101808.75;;;7.75;72.85
72294;BME280;60632;49.236;8.398;2023-02-03T05:34:03;101801.19;;;7.70;72.96
72294;BME280;60632;49.236;8.398;2023-02-03T05:37:03;101797.00;;;7.68;73.04
72294;BME280;60632;49.236;8.398;2023-02-03T05:40:04;101785.38;;;7.67;73.06
72294;BME280;60632;49.236;8.398;2023-02-03T05:43:22;101803.22;;;7.68;73.25
72294;BME280;60632;49.236;8.398;2023-02-03T05:46:23;101813.84;;;7.70;73.09
72294;BME280;60632;49.236;8.398;2023-02-03T05:49:23;101830.88;;;7.70;73.04
72294;BME280;60632;49.236;8.398;2023-02-03T05:52:24;101820.75;;;7.72;72.91
72294;BME280;60632;49.236;8.398;2023-02-03T05:55:24;101818.69;;;7.75;72.92
72294;BME280;60632;49.236;8.398;2023-02-03T05:58:25;101811.28;;;7.77;72.85
72294;BME280;60632;49.236;8.398;2023-02-03T06:01:25;101808.75;;;7.75;72.93
72294;BME280;60632;49.236;8.398;2023-02-03T06:04:25;101812.13;;;7.77;72.82
72294;BME280;60632;49.236;8.398;2023-02-03T06:07:26;101813.78;;;7.78;72.90
72294;BME280;60632;49.236;8.398;2023-02-03T06:10:26;101813.63;;;7.80;72.77
72294;BME280;60632;49.236;8.398;2023-02-03T06:13:26;101814.66;;;7.79;72.75
72294;BME280;60632;49.236;8.398;2023-02-03T06:16:27;101802.50;;;7.75;72.77
72294;BME280;60632;49.236;8.398;2023-02-03T06:19:27;101800.38;;;7.70;73.05
72294;BME280;60632;49.236;8.398;2023-02-03T06:22:28;101790.41;;;7.70;72.97
72294;BME280;60632;49.236;8.398;2023-02-03T06:25:28;101787.72;;;7.70;73.08
72294;BME280;60632;49.236;8.398;2023-02-03T06:28:31;101794.50;;;7.66;73.15
72294;BME280;60632;49.236;8.398;2023-02-03T06:31:32;101787.41;;;7.65;73.21
72294;BME280;60632;49.236;8.398;2023-02-03T06:34:32;101800.88;;;7.65;73.26
72294;BME280;60632;49.236;8.398;2023-02-03T06:37:33;101782.66;;;7.67;73.20
72294;BME280;60632;49.236;8.398;2023-02-03T06:40:34;101774.78;;;7.66;73.15
72294;BME280;60632;49.236;8.398;2023-02-03T06:43:35;101785.38;;;7.67;73.19
72294;BME280;60632;49.236;8.398;2023-02-03T06:46:36;101776.78;;;7.64;73.32
72294;BME280;60632;49.236;8.398;2023-02-03T06:49:36;101771.22;;;7.65;73.31
72294;BME280;60632;49.236;8.398;2023-02-03T06:52:36;101773.63;;;7.60;73.68
72294;BME280;60632;49.236;8.398;2023-02-03T06:55:37;101769.06;;;7.61;73.63
72294;BME280;60632;49.236;8.398;2023-02-03T06:58:37;101756.59;;;7.60;73.64
72294;BME280;60632;49.236;8.398;2023-02-03T07:01:37;101766.91;;;7.56;73.68
72294;BME280;60632;49.236;8.398;2023-02-03T07:04:38;101764.56;;;7.53;73.79
72294;BME280;60632;49.236;8.398;2023-02-03T07:07:38;101767.28;;;7.53;73.85
72294;BME280;60632;49.236;8.398;2023-02-03T07:10:38;101788.31;;;7.58;73.73
72294;BME280;60632;49.236;8.398;2023-02-03T07:13:38;101783.94;;;7.57;73.74
72294;BME280;60632;49.236;8.398;2023-02-03T07:16:39;101797.59;;;7.55;73.88
72294;BME280;60632;49.236;8.398;2023-02-03T07:19:39;101791.84;;;7.58;73.70
72294;BME280;60632;49.236;8.398;2023-02-03T07:22:39;101806.00;;;7.60;73.70
72294;BME280;60632;49.236;8.398;2023-02-03T07:25:42;101808.84;;;7.59;73.74
72294;BME280;60632;49.236;8.398;2023-02-03T07:28:43;101831.31;;;7.59;73.85
72294;BME280;60632;49.236;8.398;2023-02-03T07:31:43;101852.53;;;7.62;73.69
72294;BME280;60632;49.236;8.398;2023-02-03T07:34:43;101862.59;;;7.68;73.36
72294;BME280;60632;49.236;8.398;2023-02-03T07:37:44;101839.34;;;7.67;73.46
72294;BME280;60632;49.236;8.398;2023-02-03T07:40:44;101838.31;;;7.68;73.69
72294;BME280;60632;49.236;8.398;2023-02-03T07:43:44;101847.44;;;7.67;73.70
72294;BME280;60632;49.236;8.398;2023-02-03T07:46:45;101844.72;;;7.67;73.72
72294;BME280;60632;49.236;8.398;2023-02-03T07:49:45;101847.63;;;7.66;73.85
72294;BME280;60632;49.236;8.398;2023-02-03T07:52:46;101862.59;;;7.68;73.68
72294;BME280;60632;49.236;8.398;2023-02-03T07:55:46;101856.19;;;7.69;73.67
72294;BME280;60632;49.236;8.398;2023-02-03T07:58:46;101848.09;;;7.69;73.67
72294;BME280;60632;49.236;8.398;2023-02-03T08:01:46;101847.44;;;7.67;73.80
72294;BME280;60632;49.236;8.398;2023-02-03T08:04:47;101855.72;;;7.66;73.93
72294;BME280;60632;49.236;8.398;2023-02-03T08:07:47;101845.09;;;7.64;73.99
72294;BME280;60632;49.236;8.398;2023-02-03T08:10:47;101862.94;;;7.65;74.08
72294;BME280;60632;49.236;8.398;2023-02-03T08:13:48;101871.72;;;7.67;73.93
72294;BME280;60632;49.236;8.398;2023-02-03T08:16:48;101880.47;;;7.69;73.95
72294;BME280;60632;49.236;8.398;2023-02-03T08:19:48;101862.25;;;7.71;73.97
72294;BME280;60632;49.236;8.398;2023-02-03T08:22:49;101860.22;;;7.74;73.97
72294;BME280;60632;49.236;8.398;2023-02-03T08:25:50;101846.03;;;7.71;74.17
72294;BME280;60632;49.236;8.398;2023-02-03T08:28:51;101859.72;;;7.70;74.29
72294;BME280;60632;49.236;8.398;2023-02-03T08:31:51;101856.00;;;7.71;74.18
72294;BME280;60632;49.236;8.398;2023-02-03T08:34:53;101870.34;;;7.71;74.23
72294;BME280;60632;49.236;8.398;2023-02-03T08:37:53;101868.31;;;7.74;74.28
72294;BME280;60632;49.236;8.398;2023-02-03T08:40:54;101855.84;;;7.72;74.33
72294;BME280;60632;49.236;8.398;2023-02-03T08:43:54;101854.81;;;7.74;74.51
72294;BME280;60632;49.236;8.398;2023-02-03T08:46:55;101864.59;;;7.75;74.62
72294;BME280;60632;49.236;8.398;2023-02-03T08:49:56;101879.78;;;7.76;74.63
72294;BME280;60632;49.236;8.398;2023-02-03T08:52:56;101860.69;;;7.77;74.65
72294;BME280;60632;49.236;8.398;2023-02-03T08:55:56;101857.47;;;7.82;74.50
72294;BME280;60632;49.236;8.398;2023-02-03T08:58:56;101847.16;;;7.85;74.32
72294;BME280;60632;49.236;8.398;2023-02-03T09:01:57;101844.16;;;7.80;74.64
72294;BME280;60632;49.236;8.398;2023-02-03T09:04:59;101856.81;;;7.80;74.71
72294;BME280;60632;49.236;8.398;2023-02-03T09:07:59;101859.81;;;7.85;74.65
72294;BME280;60632;49.236;8.398;2023-02-03T09:10:59;101862.53;;;7.85;74.64
72294;BME280;60632;49.236;8.398;2023-02-03T09:14:00;101847.16;;;7.85;74.78
72294;BME280;60632;49.236;8.398;2023-02-03T09:17:00;101842.25;;;7.89;74.65
72294;BME280;60632;49.236;8.398;2023-02-03T09:20:02;101853.03;;;7.89;74.77
72294;BME280;60632;49.236;8.398;2023-02-03T09:23:02;101841.56;;;7.87;74.86
72294;BME280;60632;49.236;8.398;2023-02-03T09:26:03;101848.47;;;7.89;74.82
72294;BME280;60632;49.236;8.398;2023-02-03T09:29:03;101840.00;;;7.92;74.96
72294;BME280;60632;49.236;8.398;2023-02-03T09:32:04;101834.41;;;7.94;74.97
72294;BME280;60632;49.236;8.398;2023-02-03T09:35:07;101839.47;;;7.97;74.94
72294;BME280;60632;49.236;8.398;2023-02-03T09:38:08;101827.09;;;8.03;75.00
72294;BME280;60632;49.236;8.398;2023-02-03T09:41:20;101832.81;;;8.08;74.97
72294;BME280;60632;49.236;8.398;2023-02-03T09:45:09;101823.13;;;8.13;74.90
72294;BME280;60632;49.236;8.398;2023-02-03T09:47:49;101817.38;;;8.16;74.76
72294;BME280;60632;49.236;8.398;2023-02-03T09:50:54;101822.41;;;8.19;74.84
72294;BME280;60632;49.236;8.398;2023-02-03T09:53:59;101837.59;;;8.21;74.81
72294;BME280;60632;49.236;8.398;2023-02-03T09:57:01;101827.44;;;8.23;74.82
72294;BME280;60632;49.236;8.398;2023-02-03T10:00:12;101841.97;;;8.22;74.64
72294;BME280;60632;49.236;8.398;2023-02-03T10:06:37;101855.16;;;8.16;74.88
72294;BME280;60632;49.236;8.398;2023-02-03T10:09:42;101851.09;;;8.21;74.87
72294;BME280;60632;49.236;8.398;2023-02-03T10:16:21;101840.94;;;8.23;74.81
72294;BME280;60632;49.236;8.398;2023-02-03T10:19:26;101827.81;;;8.19;74.90
72294;BME280;60632;49.236;8.398;2023-02-03T10:22:28;101819.06;;;8.17;74.94
72294;BME280;60632;49.236;8.398;2023-02-03T10:25:34;101813.66;;;8.17;75.00
72294;BME280;60632;49.236;8.398;2023-02-03T10:28:37;101831.19;;;8.22;74.86
72294;BME280;60632;49.236;8.398;2023-02-03T10:31:38;101834.16;;;8.27;74.78
72294;BME280;60632;49.236;8.398;2023-02-03T10:34:40;101834.44;;;8.32;74.72
72294;BME280;60632;49.236;8.398;2023-02-03T10:37:44;101821.91;;;8.39;74.84
72294;BME280;60632;49.236;8.398;2023-02-03T10:40:45;101817.94;;;8.50;74.55
72294;BME280;60632;49.236;8.398;2023-02-03T10:43:46;101818.06;;;8.56;74.64
72294;BME280;60632;49.236;8.398;2023-02-03T10:46:50;101825.22;;;8.64;74.49
72294;BME280;60632;49.236;8.398;2023-02-03T10:49:51;101824.47;;;8.70;74.38
72294;BME280;60632;49.236;8.398;2023-02-03T10:52:52;101821.94;;;8.69;74.60
72294;BME280;60632;49.236;8.398;2023-02-03T10:56:13;101802.03;;;8.70;74.39
72294;BME280;60632;49.236;8.398;2023-02-03T10:59:24;101813.22;;;8.67;74.58
72294;BME280;60632;49.236;8.398;2023-02-03T11:02:27;101808.44;;;8.69;74.63
72294;BME280;60632;49.236;8.398;2023-02-03T11:05:29;101781.69;;;8.74;74.47
72294;BME280;60632;49.236;8.398;2023-02-03T11:08:29;101787.56;;;8.77;74.33
72294;BME280;60632;49.236;8.398;2023-02-03T11:11:30;101782.63;;;8.81;74.29
72294;BME280;60632;49.236;8.398;2023-02-03T11:14:35;101779.53;;;8.84;74.44
72294;BME280;60632;49.236;8.398;2023-02-03T11:17:35;101766.31;;;8.89;74.47
72294;BME280;60632;49.236;8.398;2023-02-03T11:20:36;101766.94;;;8.91;74.22
72294;BME280;60632;49.236;8.398;2023-02-03T11:23:37;101754.75;;;8.95;73.98
72294;BME280;60632;49.236;8.398;2023-02-03T11:30:15;101741.09;;;9.18;73.71
72294;BME280;60632;49.236;8.398;2023-02-03T11:33:19;101747.84;;;9.29;73.62
72294;BME280;60632;49.236;8.398;2023-02-03T11:36:24;101746.31;;;9.41;73.34
72294;BME280;60632;49.236;8.398;2023-02-03T11:39:26;101735.75;;;9.46;73.16
72294;BME280;60632;49.236;8.398;2023-02-03T11:42:27;101755.34;;;9.48;73.12
72294;BME280;60632;49.236;8.398;2023-02-03T11:45:34;101727.25;;;9.49;73.16
72294;BME280;60632;49.236;8.398;2023-02-03T11:48:36;101754.78;;;9.53;72.96
72294;BME280;60632;49.236;8.398;2023-02-03T11:51:44;101764.38;;;9.55;72.84
72294;BME280;60632;49.236;8.398;2023-02-03T12:01:47;101757.66;;;9.51;72.70
72294;BME280;60632;49.236;8.398;2023-02-03T12:07:58;101822.22;;;9.54;72.79
72294;BME280;60632;49.236;8.398;2023-02-03T12:11:05;101821.84;;;9.57;72.65
72294;BME280;60632;49.236;8.398;2023-02-03T12:14:23;101831.63;;;9.58;72.40
72294;BME280;60632;49.236;8.398;2023-02-03T12:23:49;101815.84;;;9.62;72.36
72294;BME280;60632;49.236;8.398;2023-02-03T12:30:21;101812.31;;;9.62;72.27
72294;BME280;60632;49.236;8.398;2023-02-03T12:33:25;101766.88;;;9.57;72.18
72294;BME280;60632;49.236;8.398;2023-02-03T12:36:29;101739.75;;;9.50;72.49
72294;BME280;60632;49.236;8.398;2023-02-03T12:42:43;101721.81;;;9.49;72.55
72294;BME280;60632;49.236;8.398;2023-02-03T12:46:48;101711.66;;;9.51;72.33
72294;BME280;60632;49.236;8.398;2023-02-03T12:49:27;101713.91;;;9.48;72.50
72294;BME280;60632;49.236;8.398;2023-02-03T12:52:37;101707.28;;;9.50;72.28
72294;BME280;60632;49.236;8.398;2023-02-03T12:55:40;101723.53;;;9.50;72.35
72294;BME280;60632;49.236;8.398;2023-02-03T12:58:44;101734.34;;;9.50;72.45
72294;BME280;60632;49.236;8.398;2023-02-03T13:01:48;101714.38;;;9.51;72.32
72294;BME280;60632;49.236;8.398;2023-02-03T13:05:00;101723.13;;;9.53;72.40
72294;BME280;60632;49.236;8.398;2023-02-03T13:08:08;101691.72;;;9.59;72.12
72294;BME280;60632;49.236;8.398;2023-02-03T13:14:20;101686.25;;;9.74;72.04
72294;BME280;60632;49.236;8.398;2023-02-03T13:17:43;101693.31;;;9.75;72.05
72294;BME280;60632;49.236;8.398;2023-02-03T13:20:44;101692.94;;;9.78;71.84
72294;BME280;60632;49.236;8.398;2023-02-03T13:23:44;101665.03;;;9.77;71.79
72294;BME280;60632;49.236;8.398;2023-02-03T13:29:59;101653.75;;;9.74;71.98
72294;BME280;60632;49.236;8.398;2023-02-03T13:42:20;101639.09;;;9.62;72.11
72294;BME280;60632;49.236;8.398;2023-02-03T13:45:32;101663.44;;;9.62;72.15
72294;BME280;60632;49.236;8.398;2023-02-03T13:48:37;101689.88;;;9.60;71.98
72294;BME280;60632;49.236;8.398;2023-02-03T13:51:41;101650.50;;;9.57;72.05
72294;BME280;60632;49.236;8.398;2023-02-03T13:54:45;101673.38;;;9.54;71.99
72294;BME280;60632;49.236;8.398;2023-02-03T13:57:45;101656.06;;;9.49;72.14
72294;BME280;60632;49.236;8.398;2023-02-03T14:03:50;101691.81;;;9.44;72.25
72294;BME280;60632;49.236;8.398;2023-02-03T14:13:17;101654.50;;;9.40;72.13
72294;BME280;60632;49.236;8.398;2023-02-03T14:16:22;101664.72;;;9.38;72.41
72294;BME280;60632;49.236;8.398;2023-02-03T14:22:23;101689.22;;;9.36;72.19
72294;BME280;60632;49.236;8.398;2023-02-03T14:25:26;101672.00;;;9.37;72.29
72294;BME280;60632;49.236;8.398;2023-02-03T14:28:37;101696.91;;;9.32;72.25
72294;BME280;60632;49.236;8.398;2023-02-03T14:31:52;101696.72;;;9.34;72.38
72294;BME280;60632;49.236;8.398;2023-02-03T14:34:53;101705.28;;;9.38;72.24
72294;BME280;60632;49.236;8.398;2023-02-03T14:37:54;101759.41;;;9.38;72.29
72294;BME280;60632;49.236;8.398;2023-02-03T14:40:56;101728.44;;;9.40;72.18
72294;BME280;60632;49.236;8.398;2023-02-03T14:47:22;101715.72;;;9.41;72.05
72294;BME280;60632;49.236;8.398;2023-02-03T14:50:32;101726.09;;;9.37;72.04
72294;BME280;60632;49.236;8.398;2023-02-03T15:03:18;101725.97;;;9.45;72.02
72294;BME280;60632;49.236;8.398;2023-02-03T15:09:51;101740.53;;;9.44;72.09
72294;BME280;60632;49.236;8.398;2023-02-03T15:12:53;101729.25;;;9.41;72.08
72294;BME280;60632;49.236;8.398;2023-02-03T15:15:55;101739.63;;;9.37;72.13
72294;BME280;60632;49.236;8.398;2023-02-03T15:18:57;101760.63;;;9.35;72.10
72294;BME280;60632;49.236;8.398;2023-02-03T15:21:58;101752.88;;;9.32;72.18
72294;BME280;60632;49.236;8.398;2023-02-03T15:25:00;101753.66;;;9.26;72.45
72294;BME280;60632;49.236;8.398;2023-02-03T15:28:13;101764.00;;;9.22;72.40
72294;BME280;60632;49.236;8.398;2023-02-03T15:31:19;101760.47;;;9.22;72.45
72294;BME280;60632;49.236;8.398;2023-02-03T15:34:30;101751.91;;;9.18;72.68
72294;BME280;60632;49.236;8.398;2023-02-03T15:37:36;101766.91;;;9.21;72.61
72294;BME280;60632;49.236;8.398;2023-02-03T15:40:56;101761.50;;;9.21;72.58
72294;BME280;60632;49.236;8.398;2023-02-03T15:44:00;101773.72;;;9.17;72.73
72294;BME280;60632;49.236;8.398;2023-02-03T15:47:01;101762.66;;;9.11;72.66
72294;BME280;60632;49.236;8.398;2023-02-03T15:50:17;101760.94;;;9.10;72.85
72294;BME280;60632;49.236;8.398;2023-02-03T15:59:34;101753.88;;;9.09;72.66
72294;BME280;60632;49.236;8.398;2023-02-03T16:02:40;101754.63;;;9.03;72.92
72294;BME280;60632;49.236;8.398;2023-02-03T16:05:42;101769.09;;;8.96;73.24
72294;BME280;60632;49.236;8.398;2023-02-03T16:08:47;101759.88;;;8.90;73.44
72294;BME280;60632;49.236;8.398;2023-02-03T16:11:48;101752.13;;;8.87;73.55
72294;BME280;60632;49.236;8.398;2023-02-03T16:14:48;101757.53;;;8.87;73.39
72294;BME280;60632;49.236;8.398;2023-02-03T16:17:55;101757.75;;;8.85;73.43
72294;BME280;60632;49.236;8.398;2023-02-03T16:20:58;101753.56;;;8.83;73.52
72294;BME280;60632;49.236;8.398;2023-02-03T16:23:59;101748.16;;;8.83;73.60
72294;BME280;60632;49.236;8.398;2023-02-03T16:30:22;101737.25;;;8.76;73.95
72294;BME280;60632;49.236;8.398;2023-02-03T16:33:45;101743.09;;;8.80;73.78
72294;BME280;60632;49.236;8.398;2023-02-03T16:37:11;101727.72;;;8.80;73.66
72294;BME280;60632;49.236;8.398;2023-02-03T16:40:29;101747.03;;;8.77;73.79
72294;BME280;60632;49.236;8.398;2023-02-03T16:43:48;101743.09;;;8.80;73.67
72294;BME280;60632;49.236;8.398;2023-02-03T16:47:27;101758.97;;;8.83;73.73
72294;BME280;60632;49.236;8.398;2023-02-03T16:50:46;101772.47;;;8.83;73.79
72294;BME280;60632;49.236;8.398;2023-02-03T16:53:52;101774.13;;;8.84;73.77
72294;BME280;60632;49.236;8.398;2023-02-03T16:56:53;101786.81;;;8.83;73.85
72294;BME280;60632;49.236;8.398;2023-02-03T16:59:55;101776.84;;;8.84;73.81
72294;BME280;60632;49.236;8.398;2023-02-03T17:02:55;101786.00;;;8.83;73.83
72294;BME280;60632;49.236;8.398;2023-02-03T17:05:56;101788.88;;;8.81;74.12
72294;BME280;60632;49.236;8.398;2023-02-03T17:08:56;101782.63;;;8.81;73.92
72294;BME280;60632;49.236;8.398;2023-02-03T17:11:56;101800.16;;;8.85;73.94
72294;BME280;60632;49.236;8.398;2023-02-03T17:14:57;101806.22;;;8.87;73.96
72294;BME280;60632;49.236;8.398;2023-02-03T17:17:57;101795.22;;;8.88;73.84
72294;BME280;60632;49.236;8.398;2023-02-03T17:21:02;101785.41;;;8.87;73.96
72294;BME280;60632;49.236;8.398;2023-02-03T17:24:03;101793.63;;;8.94;73.65
72294;BME280;60632;49.236;8.398;2023-02-03T17:27:03;101790.16;;;9.00;73.61
72294;BME280;60632;49.236;8.398;2023-02-03T17:30:04;101796.59;;;8.99;73.59
72294;BME280;60632;49.236;8.398;2023-02-03T17:33:05;101777.00;;;8.97;73.58
72294;BME280;60632;49.236;8.398;2023-02-03T17:36:17;101781.41;;;8.98;73.70
72294;BME280;60632;49.236;8.398;2023-02-03T17:39:18;101784.13;;;8.98;73.50
72294;BME280;60632;49.236;8.398;2023-02-03T17:42:18;101774.97;;;8.99;73.69
72294;BME280;60632;49.236;8.398;2023-02-03T17:45:19;101779.53;;;8.99;73.57
72294;BME280;60632;49.236;8.398;2023-02-03T17:48:19;101792.88;;;9.00;73.52
72294;BME280;60632;49.236;8.398;2023-02-03T17:51:20;101794.34;;;9.03;73.64
72294;BME280;60632;49.236;8.398;2023-02-03T17:54:20;101793.31;;;9.04;73.60
72294;BME280;60632;49.236;8.398;2023-02-03T17:57:21;101799.97;;;9.01;73.69
72294;BME280;60632;49.236;8.398;2023-02-03T18:00:21;101796.22;;;9.02;73.74
72294;BME280;60632;49.236;8.398;2023-02-03T18:03:21;101792.78;;;9.08;73.48
72294;BME280;60632;49.236;8.398;2023-02-03T18:06:23;101784.28;;;9.11;73.46